sensor_id;sensor_type;location;lat;lon;timestamp;P1;durP1;ratioP1;P2;durP2;ratioP2
8881;SDS011;4477;48.736;9.176;2023-07-20T00:01:26;4.13;;;2.37;;
8881;SDS011;4477;48.736;9.176;2023-07-20T00:03:53;6.00;;;2.23;;
8881;SDS011;4477;48.736;9.176;2023-07-20T00:06:20;3.77;;;2.50;;
8881;SDS011;4477;48.736;9.176;2023-07-20T00:08:49;3.50;;;2.60;;
8881;SDS011;4477;48.736;9.176;2023-07-20T00:11:16;2.73;;;2.47;;
8881;SDS011;4477;48.736;9.176;2023-07-20T00:13:43;3.57;;;2.40;;
8881;SDS011;4477;48.736;9.176;2023-07-20T00:16:11;4.67;;;2.73;;
8881;SDS011;4477;48.736;9.176;2023-07-20T00:18:38;4.00;;;2.70;;
8881;SDS011;4477;48.736;9.176;2023-07-20T00:21:04;2.77;;;2.37;;
8881;SDS011;4477;48.736;9.176;2023-07-20T00:23:31;3.10;;;2.20;;
8881;SDS011;4477;48.736;9.176;2023-07-20T00:25:58;3.50;;;2.43;;
8881;SDS011;4477;48.736;9.176;2023-07-20T00:28:25;3.33;;;2.20;;
8881;SDS011;4477;48.736;9.176;2023-07-20T00:30:51;5.00;;;2.50;;
8881;SDS011;4477;48.736;9.176;2023-07-20T00:33:20;3.93;;;2.53;;
8881;SDS011;4477;48.736;9.176;2023-07-20T00:35:46;3.73;;;2.97;;
8881;SDS011;4477;48.736;9.176;2023-07-20T00:38:13;4.10;;;2.77;;
8881;SDS011;4477;48.736;9.176;2023-07-20T00:40:40;3.97;;;2.70;;
8881;SDS011;4477;48.736;9.176;2023-07-20T00:43:08;3.43;;;2.40;;
8881;SDS011;4477;48.736;9.176;2023-07-20T00:45:34;4.00;;;3.00;;
8881;SDS011;4477;48.736;9.176;2023-07-20T00:48:03;3.53;;;2.80;;
8881;SDS011;4477;48.736;9.176;2023-07-20T00:50:33;5.67;;;3.00;;
8881;SDS011;4477;48.736;9.176;2023-07-20T00:53:00;4.07;;;3.03;;
8881;SDS011;4477;48.736;9.176;2023-07-20T00:55:31;5.07;;;3.20;;
8881;SDS011;4477;48.736;9.176;2023-07-20T00:57:58;3.30;;;3.00;;
8881;SDS011;4477;48.736;9.176;2023-07-20T01:00:25;6.40;;;3.20;;
8881;SDS011;4477;48.736;9.176;2023-07-20T01:02:52;5.00;;;3.10;;
8881;SDS011;4477;48.736;9.176;2023-07-20T01:05:19;4.37;;;3.40;;
8881;SDS011;4477;48.736;9.176;2023-07-20T01:07:51;3.20;;;2.90;;
8881;SDS011;4477;48.736;9.176;2023-07-20T01:10:25;4.90;;;3.17;;
8881;SDS011;4477;48.736;9.176;2023-07-20T01:12:57;4.07;;;2.97;;
8881;SDS011;4477;48.736;9.176;2023-07-20T01:15:26;3.57;;;2.97;;
8881;SDS011;4477;48.736;9.176;2023-07-20T01:17:53;4.37;;;3.00;;
8881;SDS011;4477;48.736;9.176;2023-07-20T01:20:20;3.10;;;2.80;;
8881;SDS011;4477;48.736;9.176;2023-07-20T01:22:55;3.00;;;2.73;;
8881;SDS011;4477;48.736;9.176;2023-07-20T01:25:45;5.23;;;2.93;;
8881;SDS011;4477;48.736;9.176;2023-07-20T01:28:37;4.27;;;2.63;;
8881;SDS011;4477;48.736;9.176;2023-07-20T01:31:26;3.57;;;2.77;;
8881;SDS011;4477;48.736;9.176;2023-07-20T01:33:57;3.40;;;2.60;;
8881;SDS011;4477;48.736;9.176;2023-07-20T01:36:26;4.20;;;2.77;;
8881;SDS011;4477;48.736;9.176;2023-07-20T01:38:56;4.60;;;3.07;;
8881;SDS011;4477;48.736;9.176;2023-07-20T01:41:24;4.60;;;2.50;;
8881;SDS011;4477;48.736;9.176;2023-07-20T01:43:50;3.03;;;2.73;;
8881;SDS011;4477;48.736;9.176;2023-07-20T01:46:17;3.93;;;2.80;;
8881;SDS011;4477;48.736;9.176;2023-07-20T01:48:46;3.20;;;2.90;;
8881;SDS011;4477;48.736;9.176;2023-07-20T01:51:13;2.77;;;2.57;;
8881;SDS011;4477;48.736;9.176;2023-07-20T01:53:42;2.80;;;2.60;;
8881;SDS011;4477;48.736;9.176;2023-07-20T01:56:09;3.17;;;2.60;;
8881;SDS011;4477;48.736;9.176;2023-07-20T01:58:37;5.50;;;2.87;;
8881;SDS011;4477;48.736;9.176;2023-07-20T02:01:04;3.70;;;2.70;;
8881;SDS011;4477;48.736;9.176;2023-07-20T02:03:31;4.00;;;2.57;;
8881;SDS011;4477;48.736;9.176;2023-07-20T02:05:59;4.20;;;2.67;;
8881;SDS011;4477;48.736;9.176;2023-07-20T02:08:26;3.40;;;2.67;;
8881;SDS011;4477;48.736;9.176;2023-07-20T02:10:53;5.83;;;2.90;;
8881;SDS011;4477;48.736;9.176;2023-07-20T02:13:19;5.00;;;3.40;;
8881;SDS011;4477;48.736;9.176;2023-07-20T02:15:46;3.87;;;3.17;;
8881;SDS011;4477;48.736;9.176;2023-07-20T02:18:14;2.83;;;2.50;;
8881;SDS011;4477;48.736;9.176;2023-07-20T02:20:41;4.63;;;2.60;;
8881;SDS011;4477;48.736;9.176;2023-07-20T02:23:09;3.53;;;2.70;;
8881;SDS011;4477;48.736;9.176;2023-07-20T02:25:36;5.87;;;3.23;;
8881;SDS011;4477;48.736;9.176;2023-07-20T02:28:03;4.80;;;2.90;;
8881;SDS011;4477;48.736;9.176;2023-07-20T02:30:30;3.87;;;3.03;;
8881;SDS011;4477;48.736;9.176;2023-07-20T02:32:57;3.63;;;2.53;;
8881;SDS011;4477;48.736;9.176;2023-07-20T02:35:24;4.00;;;3.13;;
8881;SDS011;4477;48.736;9.176;2023-07-20T02:37:51;4.13;;;3.03;;
8881;SDS011;4477;48.736;9.176;2023-07-20T02:40:20;5.97;;;3.00;;
8881;SDS011;4477;48.736;9.176;2023-07-20T02:42:47;4.50;;;3.13;;
8881;SDS011;4477;48.736;9.176;2023-07-20T02:45:13;6.17;;;3.67;;
8881;SDS011;4477;48.736;9.176;2023-07-20T02:47:41;5.20;;;3.20;;
8881;SDS011;4477;48.736;9.176;2023-07-20T02:50:08;4.67;;;2.97;;
8881;SDS011;4477;48.736;9.176;2023-07-20T02:52:35;4.17;;;3.40;;
8881;SDS011;4477;48.736;9.176;2023-07-20T02:55:02;4.40;;;3.30;;
8881;SDS011;4477;48.736;9.176;2023-07-20T02:57:30;4.87;;;3.40;;
8881;SDS011;4477;48.736;9.176;2023-07-20T02:59:57;5.60;;;3.10;;
8881;SDS011;4477;48.736;9.176;2023-07-20T03:02:24;4.90;;;3.50;;
8881;SDS011;4477;48.736;9.176;2023-07-20T03:04:51;4.47;;;3.10;;
8881;SDS011;4477;48.736;9.176;2023-07-20T03:07:19;4.50;;;3.10;;
8881;SDS011;4477;48.736;9.176;2023-07-20T03:09:45;4.40;;;3.23;;
8881;SDS011;4477;48.736;9.176;2023-07-20T03:12:13;6.17;;;3.70;;
8881;SDS011;4477;48.736;9.176;2023-07-20T03:14:41;3.70;;;3.27;;
8881;SDS011;4477;48.736;9.176;2023-07-20T03:17:08;5.80;;;3.00;;
8881;SDS011;4477;48.736;9.176;2023-07-20T03:19:35;5.03;;;3.03;;
8881;SDS011;4477;48.736;9.176;2023-07-20T03:22:02;3.83;;;3.30;;
8881;SDS011;4477;48.736;9.176;2023-07-20T03:24:29;4.27;;;3.27;;
8881;SDS011;4477;48.736;9.176;2023-07-20T03:26:55;5.20;;;3.33;;
8881;SDS011;4477;48.736;9.176;2023-07-20T03:29:22;5.60;;;3.40;;
8881;SDS011;4477;48.736;9.176;2023-07-20T03:31:50;6.83;;;3.77;;
8881;SDS011;4477;48.736;9.176;2023-07-20T03:34:17;6.57;;;3.10;;
8881;SDS011;4477;48.736;9.176;2023-07-20T03:36:44;4.17;;;3.50;;
8881;SDS011;4477;48.736;9.176;2023-07-20T03:39:11;5.20;;;3.50;;
8881;SDS011;4477;48.736;9.176;2023-07-20T03:41:37;5.07;;;3.03;;
8881;SDS011;4477;48.736;9.176;2023-07-20T03:44:04;5.63;;;3.13;;
8881;SDS011;4477;48.736;9.176;2023-07-20T03:46:31;5.70;;;3.43;;
8881;SDS011;4477;48.736;9.176;2023-07-20T03:49:00;6.40;;;3.07;;
8881;SDS011;4477;48.736;9.176;2023-07-20T03:51:27;3.60;;;2.90;;
8881;SDS011;4477;48.736;9.176;2023-07-20T03:53:56;5.03;;;3.73;;
8881;SDS011;4477;48.736;9.176;2023-07-20T03:56:23;5.17;;;3.60;;
8881;SDS011;4477;48.736;9.176;2023-07-20T03:58:50;3.80;;;3.13;;
8881;SDS011;4477;48.736;9.176;2023-07-20T04:01:17;4.70;;;2.93;;
8881;SDS011;4477;48.736;9.176;2023-07-20T04:03:44;4.67;;;3.50;;
8881;SDS011;4477;48.736;9.176;2023-07-20T04:06:12;5.17;;;3.40;;
8881;SDS011;4477;48.736;9.176;2023-07-20T04:08:41;3.80;;;3.40;;
8881;SDS011;4477;48.736;9.176;2023-07-20T04:11:08;3.13;;;2.80;;
8881;SDS011;4477;48.736;9.176;2023-07-20T04:13:35;4.60;;;3.30;;
8881;SDS011;4477;48.736;9.176;2023-07-20T04:16:02;4.87;;;3.00;;
8881;SDS011;4477;48.736;9.176;2023-07-20T04:18:29;4.47;;;3.10;;
8881;SDS011;4477;48.736;9.176;2023-07-20T04:20:55;5.00;;;3.53;;
8881;SDS011;4477;48.736;9.176;2023-07-20T04:23:25;4.10;;;2.93;;
8881;SDS011;4477;48.736;9.176;2023-07-20T04:25:52;3.57;;;2.30;;
8881;SDS011;4477;48.736;9.176;2023-07-20T04:28:19;4.57;;;2.80;;
8881;SDS011;4477;48.736;9.176;2023-07-20T04:30:49;3.00;;;2.70;;
8881;SDS011;4477;48.736;9.176;2023-07-20T04:33:16;3.57;;;2.90;;
8881;SDS011;4477;48.736;9.176;2023-07-20T04:35:47;3.40;;;2.73;;
8881;SDS011;4477;48.736;9.176;2023-07-20T04:38:15;4.57;;;2.90;;
8881;SDS011;4477;48.736;9.176;2023-07-20T04:40:45;5.37;;;2.50;;
8881;SDS011;4477;48.736;9.176;2023-07-20T04:43:13;4.17;;;2.43;;
8881;SDS011;4477;48.736;9.176;2023-07-20T04:45:40;4.73;;;2.83;;
8881;SDS011;4477;48.736;9.176;2023-07-20T04:48:09;3.80;;;2.50;;
8881;SDS011;4477;48.736;9.176;2023-07-20T04:50:37;6.33;;;2.87;;
8881;SDS011;4477;48.736;9.176;2023-07-20T04:53:04;5.47;;;2.57;;
8881;SDS011;4477;48.736;9.176;2023-07-20T04:55:32;7.00;;;2.33;;
8881;SDS011;4477;48.736;9.176;2023-07-20T04:58:01;4.23;;;2.73;;
8881;SDS011;4477;48.736;9.176;2023-07-20T05:00:28;3.47;;;2.67;;
8881;SDS011;4477;48.736;9.176;2023-07-20T05:02:55;4.37;;;2.53;;
8881;SDS011;4477;48.736;9.176;2023-07-20T05:05:22;6.77;;;2.43;;
8881;SDS011;4477;48.736;9.176;2023-07-20T05:07:49;7.77;;;2.43;;
8881;SDS011;4477;48.736;9.176;2023-07-20T05:10:16;3.87;;;2.40;;
8881;SDS011;4477;48.736;9.176;2023-07-20T05:12:43;5.03;;;2.77;;
8881;SDS011;4477;48.736;9.176;2023-07-20T05:15:11;3.17;;;2.47;;
8881;SDS011;4477;48.736;9.176;2023-07-20T05:17:38;3.67;;;2.30;;
8881;SDS011;4477;48.736;9.176;2023-07-20T05:20:06;4.03;;;2.40;;
8881;SDS011;4477;48.736;9.176;2023-07-20T05:22:35;5.07;;;2.30;;
8881;SDS011;4477;48.736;9.176;2023-07-20T05:25:05;4.23;;;2.30;;
8881;SDS011;4477;48.736;9.176;2023-07-20T05:27:32;5.53;;;2.50;;
8881;SDS011;4477;48.736;9.176;2023-07-20T05:29:59;4.13;;;2.47;;
8881;SDS011;4477;48.736;9.176;2023-07-20T05:32:27;3.90;;;2.20;;
8881;SDS011;4477;48.736;9.176;2023-07-20T05:34:54;3.70;;;2.10;;
8881;SDS011;4477;48.736;9.176;2023-07-20T05:37:21;4.70;;;2.60;;
8881;SDS011;4477;48.736;9.176;2023-07-20T05:39:48;3.87;;;2.43;;
8881;SDS011;4477;48.736;9.176;2023-07-20T05:42:15;3.60;;;2.23;;
8881;SDS011;4477;48.736;9.176;2023-07-20T05:44:42;4.47;;;2.30;;
8881;SDS011;4477;48.736;9.176;2023-07-20T05:47:09;4.47;;;2.37;;
8881;SDS011;4477;48.736;9.176;2023-07-20T05:49:37;2.97;;;2.43;;
8881;SDS011;4477;48.736;9.176;2023-07-20T05:52:04;3.23;;;2.30;;
8881;SDS011;4477;48.736;9.176;2023-07-20T05:54:31;4.00;;;2.70;;
8881;SDS011;4477;48.736;9.176;2023-07-20T05:56:58;3.30;;;2.10;;
8881;SDS011;4477;48.736;9.176;2023-07-20T05:59:26;3.63;;;2.27;;
8881;SDS011;4477;48.736;9.176;2023-07-20T06:01:55;5.50;;;2.00;;
8881;SDS011;4477;48.736;9.176;2023-07-20T06:04:21;3.57;;;2.07;;
8881;SDS011;4477;48.736;9.176;2023-07-20T06:06:50;3.43;;;2.30;;
8881;SDS011;4477;48.736;9.176;2023-07-20T06:09:17;3.83;;;2.53;;
8881;SDS011;4477;48.736;9.176;2023-07-20T06:11:44;5.00;;;2.50;;
8881;SDS011;4477;48.736;9.176;2023-07-20T06:14:10;4.10;;;2.60;;
8881;SDS011;4477;48.736;9.176;2023-07-20T06:16:37;7.43;;;3.23;;
8881;SDS011;4477;48.736;9.176;2023-07-20T06:19:04;3.40;;;2.50;;
8881;SDS011;4477;48.736;9.176;2023-07-20T06:21:31;3.77;;;2.13;;
8881;SDS011;4477;48.736;9.176;2023-07-20T06:23:59;4.70;;;2.13;;
8881;SDS011;4477;48.736;9.176;2023-07-20T06:26:26;2.10;;;1.90;;
8881;SDS011;4477;48.736;9.176;2023-07-20T06:28:53;6.23;;;2.50;;
8881;SDS011;4477;48.736;9.176;2023-07-20T06:31:20;3.50;;;2.27;;
8881;SDS011;4477;48.736;9.176;2023-07-20T06:33:47;3.63;;;2.30;;
8881;SDS011;4477;48.736;9.176;2023-07-20T06:36:15;3.20;;;2.20;;
8881;SDS011;4477;48.736;9.176;2023-07-20T06:38:44;3.70;;;2.33;;
8881;SDS011;4477;48.736;9.176;2023-07-20T06:41:12;4.30;;;2.27;;
8881;SDS011;4477;48.736;9.176;2023-07-20T06:43:38;6.00;;;2.27;;
8881;SDS011;4477;48.736;9.176;2023-07-20T06:46:05;5.87;;;2.27;;
8881;SDS011;4477;48.736;9.176;2023-07-20T06:48:32;5.57;;;2.30;;
8881;SDS011;4477;48.736;9.176;2023-07-20T06:50:59;2.67;;;1.87;;
8881;SDS011;4477;48.736;9.176;2023-07-20T06:53:26;4.13;;;2.10;;
8881;SDS011;4477;48.736;9.176;2023-07-20T06:55:53;2.77;;;2.20;;
8881;SDS011;4477;48.736;9.176;2023-07-20T06:58:23;3.30;;;2.20;;
8881;SDS011;4477;48.736;9.176;2023-07-20T07:00:50;3.17;;;2.37;;
8881;SDS011;4477;48.736;9.176;2023-07-20T07:03:16;5.23;;;2.27;;
8881;SDS011;4477;48.736;9.176;2023-07-20T07:05:44;4.23;;;2.37;;
8881;SDS011;4477;48.736;9.176;2023-07-20T07:08:11;4.23;;;2.07;;
8881;SDS011;4477;48.736;9.176;2023-07-20T07:10:38;5.20;;;2.30;;
8881;SDS011;4477;48.736;9.176;2023-07-20T07:13:04;3.53;;;1.80;;
8881;SDS011;4477;48.736;9.176;2023-07-20T07:15:33;4.93;;;2.00;;
8881;SDS011;4477;48.736;9.176;2023-07-20T07:18:00;3.47;;;2.10;;
8881;SDS011;4477;48.736;9.176;2023-07-20T07:20:28;5.97;;;2.45;;
8881;SDS011;4477;48.736;9.176;2023-07-20T07:22:55;4.95;;;2.42;;
8881;SDS011;4477;48.736;9.176;2023-07-20T07:25:22;3.95;;;2.38;;
8881;SDS011;4477;48.736;9.176;2023-07-20T07:27:49;2.53;;;2.00;;
8881;SDS011;4477;48.736;9.176;2023-07-20T07:30:17;5.55;;;2.53;;
8881;SDS011;4477;48.736;9.176;2023-07-20T07:32:45;5.10;;;2.13;;
8881;SDS011;4477;48.736;9.176;2023-07-20T07:35:12;4.30;;;2.10;;
8881;SDS011;4477;48.736;9.176;2023-07-20T07:37:39;3.23;;;2.30;;
8881;SDS011;4477;48.736;9.176;2023-07-20T07:40:06;4.63;;;2.13;;
8881;SDS011;4477;48.736;9.176;2023-07-20T07:42:34;3.10;;;2.23;;
8881;SDS011;4477;48.736;9.176;2023-07-20T07:45:01;4.13;;;1.90;;
8881;SDS011;4477;48.736;9.176;2023-07-20T07:47:28;2.67;;;2.20;;
8881;SDS011;4477;48.736;9.176;2023-07-20T07:49:56;4.17;;;2.57;;
8881;SDS011;4477;48.736;9.176;2023-07-20T07:52:23;6.53;;;2.57;;
8881;SDS011;4477;48.736;9.176;2023-07-20T07:54:50;5.07;;;2.40;;
8881;SDS011;4477;48.736;9.176;2023-07-20T07:57:17;5.83;;;2.80;;
8881;SDS011;4477;48.736;9.176;2023-07-20T07:59:44;4.77;;;2.47;;
8881;SDS011;4477;48.736;9.176;2023-07-20T08:02:11;4.83;;;2.47;;
8881;SDS011;4477;48.736;9.176;2023-07-20T08:04:37;3.43;;;2.00;;
8881;SDS011;4477;48.736;9.176;2023-07-20T08:07:06;7.97;;;2.63;;
8881;SDS011;4477;48.736;9.176;2023-07-20T08:09:33;3.08;;;2.15;;
8881;SDS011;4477;48.736;9.176;2023-07-20T08:12:00;3.97;;;2.30;;
8881;SDS011;4477;48.736;9.176;2023-07-20T08:14:26;2.58;;;2.13;;
8881;SDS011;4477;48.736;9.176;2023-07-20T08:16:53;2.70;;;2.30;;
8881;SDS011;4477;48.736;9.176;2023-07-20T08:19:20;3.97;;;2.22;;
8881;SDS011;4477;48.736;9.176;2023-07-20T08:21:47;3.35;;;2.20;;
8881;SDS011;4477;48.736;9.176;2023-07-20T08:24:15;4.50;;;2.03;;
8881;SDS011;4477;48.736;9.176;2023-07-20T08:26:42;6.03;;;2.65;;
8881;SDS011;4477;48.736;9.176;2023-07-20T08:29:09;3.05;;;2.40;;
8881;SDS011;4477;48.736;9.176;2023-07-20T08:31:36;4.65;;;2.67;;
8881;SDS011;4477;48.736;9.176;2023-07-20T08:34:02;4.20;;;2.43;;
8881;SDS011;4477;48.736;9.176;2023-07-20T08:36:29;3.95;;;2.05;;
8881;SDS011;4477;48.736;9.176;2023-07-20T08:38:57;2.83;;;1.98;;
8881;SDS011;4477;48.736;9.176;2023-07-20T08:41:26;3.90;;;2.03;;
8881;SDS011;4477;48.736;9.176;2023-07-20T08:43:53;2.55;;;1.95;;
8881;SDS011;4477;48.736;9.176;2023-07-20T08:46:23;2.38;;;1.75;;
8881;SDS011;4477;48.736;9.176;2023-07-20T08:48:51;3.13;;;1.70;;
8881;SDS011;4477;48.736;9.176;2023-07-20T08:51:18;4.07;;;1.80;;
8881;SDS011;4477;48.736;9.176;2023-07-20T08:53:47;2.90;;;2.30;;
8881;SDS011;4477;48.736;9.176;2023-07-20T08:56:17;4.03;;;2.30;;
8881;SDS011;4477;48.736;9.176;2023-07-20T08:58:47;5.00;;;2.30;;
8881;SDS011;4477;48.736;9.176;2023-07-20T09:01:14;3.35;;;2.47;;
8881;SDS011;4477;48.736;9.176;2023-07-20T09:03:41;7.82;;;2.15;;
8881;SDS011;4477;48.736;9.176;2023-07-20T09:06:11;7.20;;;2.22;;
8881;SDS011;4477;48.736;9.176;2023-07-20T09:08:38;6.28;;;1.90;;
8881;SDS011;4477;48.736;9.176;2023-07-20T09:11:05;2.58;;;2.20;;
8881;SDS011;4477;48.736;9.176;2023-07-20T09:13:32;3.25;;;2.00;;
8881;SDS011;4477;48.736;9.176;2023-07-20T09:16:00;2.00;;;1.80;;
8881;SDS011;4477;48.736;9.176;2023-07-20T09:18:29;4.25;;;1.92;;
8881;SDS011;4477;48.736;9.176;2023-07-20T09:21:01;4.63;;;1.80;;
8881;SDS011;4477;48.736;9.176;2023-07-20T09:23:32;2.47;;;1.63;;
8881;SDS011;4477;48.736;9.176;2023-07-20T09:26:00;2.70;;;1.90;;
8881;SDS011;4477;48.736;9.176;2023-07-20T09:28:27;1.80;;;1.70;;
8881;SDS011;4477;48.736;9.176;2023-07-20T09:30:54;2.65;;;1.88;;
8881;SDS011;4477;48.736;9.176;2023-07-20T09:33:24;2.20;;;1.40;;
8881;SDS011;4477;48.736;9.176;2023-07-20T09:35:51;2.92;;;1.90;;
8881;SDS011;4477;48.736;9.176;2023-07-20T09:38:18;3.42;;;2.25;;
8881;SDS011;4477;48.736;9.176;2023-07-20T09:40:45;3.42;;;1.73;;
8881;SDS011;4477;48.736;9.176;2023-07-20T09:43:12;2.50;;;1.90;;
8881;SDS011;4477;48.736;9.176;2023-07-20T09:45:42;4.45;;;2.00;;
8881;SDS011;4477;48.736;9.176;2023-07-20T09:48:10;3.33;;;1.88;;
8881;SDS011;4477;48.736;9.176;2023-07-20T09:50:42;4.60;;;1.90;;
8881;SDS011;4477;48.736;9.176;2023-07-20T09:53:14;3.60;;;1.77;;
8881;SDS011;4477;48.736;9.176;2023-07-20T09:55:44;2.42;;;1.98;;
8881;SDS011;4477;48.736;9.176;2023-07-20T09:58:11;1.88;;;1.40;;
8881;SDS011;4477;48.736;9.176;2023-07-20T10:00:38;2.13;;;1.50;;
8881;SDS011;4477;48.736;9.176;2023-07-20T10:03:08;4.13;;;1.80;;
8881;SDS011;4477;48.736;9.176;2023-07-20T10:05:38;3.92;;;2.10;;
8881;SDS011;4477;48.736;9.176;2023-07-20T10:08:11;4.60;;;1.30;;
8881;SDS011;4477;48.736;9.176;2023-07-20T10:10:40;3.15;;;1.55;;
8881;SDS011;4477;48.736;9.176;2023-07-20T10:13:09;3.20;;;1.95;;
8881;SDS011;4477;48.736;9.176;2023-07-20T10:15:43;1.90;;;1.60;;
8881;SDS011;4477;48.736;9.176;2023-07-20T10:18:14;3.00;;;1.67;;
8881;SDS011;4477;48.736;9.176;2023-07-20T10:20:48;1.50;;;1.40;;
8881;SDS011;4477;48.736;9.176;2023-07-20T10:23:18;2.70;;;1.48;;
8881;SDS011;4477;48.736;9.176;2023-07-20T10:25:45;3.22;;;1.45;;
8881;SDS011;4477;48.736;9.176;2023-07-20T10:28:13;3.00;;;1.58;;
8881;SDS011;4477;48.736;9.176;2023-07-20T10:30:40;2.05;;;1.80;;
8881;SDS011;4477;48.736;9.176;2023-07-20T10:33:08;2.67;;;1.70;;
8881;SDS011;4477;48.736;9.176;2023-07-20T10:35:50;1.35;;;1.25;;
8881;SDS011;4477;48.736;9.176;2023-07-20T10:38:19;2.22;;;1.23;;
8881;SDS011;4477;48.736;9.176;2023-07-20T10:40:53;2.55;;;1.50;;
8881;SDS011;4477;48.736;9.176;2023-07-20T10:43:21;2.13;;;1.50;;
8881;SDS011;4477;48.736;9.176;2023-07-20T10:45:48;3.00;;;1.63;;
8881;SDS011;4477;48.736;9.176;2023-07-20T10:48:16;1.80;;;1.40;;
8881;SDS011;4477;48.736;9.176;2023-07-20T10:50:45;7.20;;;1.85;;
8881;SDS011;4477;48.736;9.176;2023-07-20T10:53:34;1.98;;;1.40;;
8881;SDS011;4477;48.736;9.176;2023-07-20T10:56:08;2.90;;;1.70;;
8881;SDS011;4477;48.736;9.176;2023-07-20T10:58:38;1.77;;;1.33;;
8881;SDS011;4477;48.736;9.176;2023-07-20T11:01:06;2.60;;;1.58;;
8881;SDS011;4477;48.736;9.176;2023-07-20T11:03:35;2.55;;;1.10;;
8881;SDS011;4477;48.736;9.176;2023-07-20T11:09:04;1.63;;;1.45;;
8881;SDS011;4477;48.736;9.176;2023-07-20T11:11:33;2.50;;;1.40;;
8881;SDS011;4477;48.736;9.176;2023-07-20T11:14:01;2.75;;;1.40;;
8881;SDS011;4477;48.736;9.176;2023-07-20T11:16:33;1.52;;;1.20;;
8881;SDS011;4477;48.736;9.176;2023-07-20T11:19:01;1.70;;;1.30;;
8881;SDS011;4477;48.736;9.176;2023-07-20T11:21:29;3.70;;;1.60;;
8881;SDS011;4477;48.736;9.176;2023-07-20T11:24:04;1.58;;;1.30;;
8881;SDS011;4477;48.736;9.176;2023-07-20T11:26:39;2.83;;;1.40;;
8881;SDS011;4477;48.736;9.176;2023-07-20T11:29:06;1.95;;;1.10;;
8881;SDS011;4477;48.736;9.176;2023-07-20T11:31:34;1.88;;;1.38;;
8881;SDS011;4477;48.736;9.176;2023-07-20T11:34:02;1.65;;;1.10;;
8881;SDS011;4477;48.736;9.176;2023-07-20T11:36:29;2.90;;;1.40;;
8881;SDS011;4477;48.736;9.176;2023-07-20T11:38:56;1.48;;;1.33;;
8881;SDS011;4477;48.736;9.176;2023-07-20T11:41:25;2.13;;;1.30;;
8881;SDS011;4477;48.736;9.176;2023-07-20T11:43:52;2.40;;;1.30;;
8881;SDS011;4477;48.736;9.176;2023-07-20T11:46:21;1.63;;;1.30;;
8881;SDS011;4477;48.736;9.176;2023-07-20T11:48:48;1.52;;;1.20;;
8881;SDS011;4477;48.736;9.176;2023-07-20T11:51:15;2.80;;;1.48;;
8881;SDS011;4477;48.736;9.176;2023-07-20T11:53:42;2.10;;;1.35;;
8881;SDS011;4477;48.736;9.176;2023-07-20T11:56:11;2.95;;;1.42;;
8881;SDS011;4477;48.736;9.176;2023-07-20T11:58:43;2.70;;;1.23;;
8881;SDS011;4477;48.736;9.176;2023-07-20T12:01:11;2.05;;;1.45;;
8881;SDS011;4477;48.736;9.176;2023-07-20T12:03:38;1.92;;;1.38;;
8881;SDS011;4477;48.736;9.176;2023-07-20T12:06:08;1.23;;;1.13;;
8881;SDS011;4477;48.736;9.176;2023-07-20T12:08:37;2.08;;;1.38;;
8881;SDS011;4477;48.736;9.176;2023-07-20T12:11:05;2.50;;;1.20;;
8881;SDS011;4477;48.736;9.176;2023-07-20T12:13:36;1.90;;;1.20;;
8881;SDS011;4477;48.736;9.176;2023-07-20T12:16:10;1.95;;;1.27;;
8881;SDS011;4477;48.736;9.176;2023-07-20T12:18:38;2.25;;;1.00;;
8881;SDS011;4477;48.736;9.176;2023-07-20T12:21:05;1.33;;;1.00;;
8881;SDS011;4477;48.736;9.176;2023-07-20T12:23:37;1.58;;;1.30;;
8881;SDS011;4477;48.736;9.176;2023-07-20T12:26:07;2.35;;;1.20;;
8881;SDS011;4477;48.736;9.176;2023-07-20T12:28:35;2.05;;;0.95;;
8881;SDS011;4477;48.736;9.176;2023-07-20T12:31:06;2.13;;;1.35;;
8881;SDS011;4477;48.736;9.176;2023-07-20T12:33:36;1.20;;;1.10;;
8881;SDS011;4477;48.736;9.176;2023-07-20T12:36:03;1.77;;;1.40;;
8881;SDS011;4477;48.736;9.176;2023-07-20T12:38:31;1.98;;;1.33;;
8881;SDS011;4477;48.736;9.176;2023-07-20T12:40:59;2.42;;;1.30;;
8881;SDS011;4477;48.736;9.176;2023-07-20T12:43:26;2.88;;;1.20;;
8881;SDS011;4477;48.736;9.176;2023-07-20T12:45:54;2.80;;;1.30;;
8881;SDS011;4477;48.736;9.176;2023-07-20T12:48:24;1.75;;;1.50;;
8881;SDS011;4477;48.736;9.176;2023-07-20T12:50:52;3.08;;;1.33;;
8881;SDS011;4477;48.736;9.176;2023-07-20T12:53:20;2.25;;;1.20;;
8881;SDS011;4477;48.736;9.176;2023-07-20T12:55:47;3.33;;;1.42;;
8881;SDS011;4477;48.736;9.176;2023-07-20T12:58:15;1.40;;;1.30;;
8881;SDS011;4477;48.736;9.176;2023-07-20T13:00:41;2.55;;;1.23;;
8881;SDS011;4477;48.736;9.176;2023-07-20T13:03:08;2.08;;;1.52;;
8881;SDS011;4477;48.736;9.176;2023-07-20T13:05:35;2.42;;;1.30;;
8881;SDS011;4477;48.736;9.176;2023-07-20T13:08:04;3.47;;;1.52;;
8881;SDS011;4477;48.736;9.176;2023-07-20T13:10:30;1.90;;;1.30;;
8881;SDS011;4477;48.736;9.176;2023-07-20T13:12:57;1.77;;;1.33;;
8881;SDS011;4477;48.736;9.176;2023-07-20T13:15:29;1.75;;;1.27;;
8881;SDS011;4477;48.736;9.176;2023-07-20T13:17:57;2.47;;;1.30;;
8881;SDS011;4477;48.736;9.176;2023-07-20T13:20:25;1.52;;;1.10;;
8881;SDS011;4477;48.736;9.176;2023-07-20T13:22:53;2.35;;;1.20;;
8881;SDS011;4477;48.736;9.176;2023-07-20T13:25:21;2.75;;;1.20;;
8881;SDS011;4477;48.736;9.176;2023-07-20T13:27:48;2.85;;;1.15;;
8881;SDS011;4477;48.736;9.176;2023-07-20T13:30:14;3.15;;;1.40;;
8881;SDS011;4477;48.736;9.176;2023-07-20T13:32:42;1.98;;;1.17;;
8881;SDS011;4477;48.736;9.176;2023-07-20T13:35:09;3.25;;;1.15;;
8881;SDS011;4477;48.736;9.176;2023-07-20T13:37:36;1.63;;;1.20;;
8881;SDS011;4477;48.736;9.176;2023-07-20T13:40:04;1.60;;;1.20;;
8881;SDS011;4477;48.736;9.176;2023-07-20T13:42:34;2.92;;;1.15;;
8881;SDS011;4477;48.736;9.176;2023-07-20T13:45:01;1.35;;;1.20;;
8881;SDS011;4477;48.736;9.176;2023-07-20T13:47:28;1.15;;;0.95;;
8881;SDS011;4477;48.736;9.176;2023-07-20T13:49:55;1.45;;;1.10;;
8881;SDS011;4477;48.736;9.176;2023-07-20T13:52:22;3.40;;;1.08;;
8881;SDS011;4477;48.736;9.176;2023-07-20T13:54:49;3.85;;;1.17;;
8881;SDS011;4477;48.736;9.176;2023-07-20T13:57:15;2.95;;;1.10;;
8881;SDS011;4477;48.736;9.176;2023-07-20T13:59:44;2.20;;;1.38;;
8881;SDS011;4477;48.736;9.176;2023-07-20T14:02:11;1.17;;;1.00;;
8881;SDS011;4477;48.736;9.176;2023-07-20T14:04:40;2.42;;;1.40;;
8881;SDS011;4477;48.736;9.176;2023-07-20T14:07:07;1.60;;;1.08;;
8881;SDS011;4477;48.736;9.176;2023-07-20T14:09:33;1.85;;;1.13;;
8881;SDS011;4477;48.736;9.176;2023-07-20T14:12:00;2.22;;;1.40;;
8881;SDS011;4477;48.736;9.176;2023-07-20T14:14:27;1.75;;;1.17;;
8881;SDS011;4477;48.736;9.176;2023-07-20T14:16:56;1.90;;;1.15;;
8881;SDS011;4477;48.736;9.176;2023-07-20T14:19:22;1.42;;;1.10;;
8881;SDS011;4477;48.736;9.176;2023-07-20T14:21:49;2.05;;;1.10;;
8881;SDS011;4477;48.736;9.176;2023-07-20T14:24:16;2.15;;;1.40;;
8881;SDS011;4477;48.736;9.176;2023-07-20T14:26:43;4.07;;;1.25;;
8881;SDS011;4477;48.736;9.176;2023-07-20T14:29:10;1.90;;;1.48;;
8881;SDS011;4477;48.736;9.176;2023-07-20T14:31:37;2.30;;;1.20;;
8881;SDS011;4477;48.736;9.176;2023-07-20T14:34:05;2.25;;;1.30;;
8881;SDS011;4477;48.736;9.176;2023-07-20T14:36:32;2.55;;;1.20;;
8881;SDS011;4477;48.736;9.176;2023-07-20T14:38:58;1.65;;;1.20;;
8881;SDS011;4477;48.736;9.176;2023-07-20T14:41:25;3.28;;;1.27;;
8881;SDS011;4477;48.736;9.176;2023-07-20T14:43:52;1.20;;;1.10;;
8881;SDS011;4477;48.736;9.176;2023-07-20T14:46:19;4.20;;;1.20;;
8881;SDS011;4477;48.736;9.176;2023-07-20T14:48:46;3.80;;;1.33;;
8881;SDS011;4477;48.736;9.176;2023-07-20T14:51:14;1.73;;;1.20;;
8881;SDS011;4477;48.736;9.176;2023-07-20T14:53:41;1.45;;;1.10;;
8881;SDS011;4477;48.736;9.176;2023-07-20T14:56:08;2.83;;;1.30;;
8881;SDS011;4477;48.736;9.176;2023-07-20T14:58:35;2.25;;;1.15;;
8881;SDS011;4477;48.736;9.176;2023-07-20T15:01:02;2.85;;;1.30;;
8881;SDS011;4477;48.736;9.176;2023-07-20T15:03:29;1.58;;;1.20;;
8881;SDS011;4477;48.736;9.176;2023-07-20T15:05:57;2.10;;;1.08;;
8881;SDS011;4477;48.736;9.176;2023-07-20T15:08:26;2.45;;;1.23;;
8881;SDS011;4477;48.736;9.176;2023-07-20T15:10:53;1.33;;;1.23;;
8881;SDS011;4477;48.736;9.176;2023-07-20T15:13:20;1.70;;;1.30;;
8881;SDS011;4477;48.736;9.176;2023-07-20T15:15:47;3.22;;;1.35;;
8881;SDS011;4477;48.736;9.176;2023-07-20T15:18:14;3.97;;;1.00;;
8881;SDS011;4477;48.736;9.176;2023-07-20T15:20:41;1.60;;;1.25;;
8881;SDS011;4477;48.736;9.176;2023-07-20T15:23:08;1.17;;;0.95;;